Impacts METAR Board
IDs:

KPIT - Pittsburgh Intl, PA, US

Updated at: 2200 UTC 20 Jun 2019
Potential Impact None Slight Moderate High
Time 20/10Z 20/11Z 20/12Z 20/13Z 20/14Z 20/15Z 20/16Z 20/17Z 20/18Z 20/19Z 20/20Z 20/21Z 20/22Z
Temp67 67 68 68 69 69 69 69 72 72 75 74 71
Dewpt67 67 67 66 66 66 68 67 67 67 66 66 68
Altim29.59 29.60 29.60 29.62 29.63 29.63 29.63 29.62 29.61 29.60 29.58 29.57 29.56
VIS10 10 10 10 10 7 8 10 10 10 10 10 2.5
CIG60 70 7 14 11 12 24 19 18 43 55 41 16
CoverOVCOVCOVCOVCOVCOVCOVCOVCOVCOVCOVCOVCOVC
FltCatVFRVFRIFRMVFRMVFRMVFRMVFRMVFRMVFRVFRVFRVFRIFR
WX-----------RA-----RA------+TSRA BR
WDir170180230230250240230250220240240210250
WSpd4 6 7 10 7 6 8 5 8 8 12 7 7
WGst-- -- -- -- -- -- -- -- -- -- 17 -- --
Raw hourly METARs
KPIT 201002Z 17004KT 10SM SCT009 BKN060 OVC110 19/19 A2959 RMK AO2 RAE02 P0000 T01940194
KPIT 201051Z 18006KT 10SM SCT006 BKN070 OVC100 19/19 A2960 RMK AO2 RAE02 SLP023 P0000 T01940194
KPIT 201151Z 23007KT 10SM BKN007 BKN070 OVC100 20/19 A2960 RMK AO2 SLP022 60006 70019 T02000194 10206 20194 53002
KPIT 201251Z 23010KT 10SM SCT009 BKN014 OVC050 20/19 A2962 RMK AO2 SLP028 T02000189
KPIT 201351Z 25007KT 10SM OVC011 21/19 A2963 RMK AO2 SLP033 T02060189
KPIT 201451Z 24006KT 7SM -RA OVC012 21/19 A2963 RMK AO2 RAB27 SLP033 P0000 60000 T02060189 50009
KPIT 201551Z 23008KT 8SM FEW007 SCT018 BKN024 OVC200 21/20 A2963 RMK AO2 RAE46 SLP033 P0011 T02060200
KPIT 201651Z 25005KT 10SM SCT012 OVC019 21/19 A2962 RMK AO2 DZB33E48 SLP031 P0000 T02060194
KPIT 201751Z 22008KT 10SM -RA SCT013 BKN018 OVC043 22/19 A2961 RMK AO2 RAB49 SLP024 P0000 60011 T02220194 10222 20200 58007
KPIT 201851Z 24008KT 10SM SCT019 BKN043 BKN070 OVC200 22/19 A2960 RMK AO2 RAE38 SLP022 P0000 T02220194
KPIT 201951Z 24012G17KT 10SM FEW019 SCT024 BKN055 OVC200 24/19 A2958 RMK AO2 SLP016 T02390189
KPIT 202051Z 21007KT 10SM SCT024 BKN041 OVC150 23/19 A2957 RMK AO2 SLP011 60000 T02330189 58013
KPIT 202151Z 25007KT 210V270 2 1/2SM R28R/3000VP6000FT +TSRA BR BKN016 BKN033CB OVC050 22/20 A2956 RMK AO2 LTG DSNT S-NW RAB36 TSB39 SLP008 OCNL LTGICCCCG OHD TS OHD MOV NE P0003 T02170200 $



Page loaded:  22:06 UTC  |   03:06 PM Pacific  |   04:06 PM Mountain  |   05:06 PM Central  |   06:06 PM Eastern

 

ADVISORIES

FORECASTS

FORECASTS

OBSERVATIONS

USER TOOLS

ABOUT US